sensor_id;sensor_type;location;lat;lon;timestamp;temperature;humidity
26703;DHT22;14316;51.074;3.704;2023-02-28T00:00:05;3.60;99.90
26703;DHT22;14316;51.074;3.704;2023-02-28T00:02:36;3.60;99.90
26703;DHT22;14316;51.074;3.704;2023-02-28T00:05:02;3.60;99.90
26703;DHT22;14316;51.074;3.704;2023-02-28T00:07:29;3.60;99.90
26703;DHT22;14316;51.074;3.704;2023-02-28T00:09:56;3.60;99.90
26703;DHT22;14316;51.074;3.704;2023-02-28T00:12:22;3.60;99.90
26703;DHT22;14316;51.074;3.704;2023-02-28T00:14:48;3.60;99.90
26703;DHT22;14316;51.074;3.704;2023-02-28T00:17:14;3.60;99.90
26703;DHT22;14316;51.074;3.704;2023-02-28T00:19:40;3.70;99.90
26703;DHT22;14316;51.074;3.704;2023-02-28T00:22:05;3.50;99.90
26703;DHT22;14316;51.074;3.704;2023-02-28T00:24:31;3.50;99.90
26703;DHT22;14316;51.074;3.704;2023-02-28T00:26:57;3.70;99.90
26703;DHT22;14316;51.074;3.704;2023-02-28T00:29:23;3.50;99.90
26703;DHT22;14316;51.074;3.704;2023-02-28T00:31:49;3.50;99.90
26703;DHT22;14316;51.074;3.704;2023-02-28T00:34:15;3.50;99.90
26703;DHT22;14316;51.074;3.704;2023-02-28T00:36:40;3.50;99.90
26703;DHT22;14316;51.074;3.704;2023-02-28T00:39:10;3.40;99.90
26703;DHT22;14316;51.074;3.704;2023-02-28T00:41:37;3.50;99.90
26703;DHT22;14316;51.074;3.704;2023-02-28T00:44:02;3.40;99.90
26703;DHT22;14316;51.074;3.704;2023-02-28T00:46:28;3.40;99.90
26703;DHT22;14316;51.074;3.704;2023-02-28T00:48:53;3.60;99.90
26703;DHT22;14316;51.074;3.704;2023-02-28T00:51:19;3.40;99.90
26703;DHT22;14316;51.074;3.704;2023-02-28T00:53:45;3.40;99.90
26703;DHT22;14316;51.074;3.704;2023-02-28T00:56:10;3.40;99.90
26703;DHT22;14316;51.074;3.704;2023-02-28T00:58:36;3.40;99.90
26703;DHT22;14316;51.074;3.704;2023-02-28T01:01:03;3.30;99.90
26703;DHT22;14316;51.074;3.704;2023-02-28T01:03:29;3.30;99.90
26703;DHT22;14316;51.074;3.704;2023-02-28T01:05:55;3.30;99.90
26703;DHT22;14316;51.074;3.704;2023-02-28T01:08:21;3.30;99.90
26703;DHT22;14316;51.074;3.704;2023-02-28T01:10:47;3.30;99.90
26703;DHT22;14316;51.074;3.704;2023-02-28T01:13:13;3.30;99.90
26703;DHT22;14316;51.074;3.704;2023-02-28T01:15:48;3.30;99.90
26703;DHT22;14316;51.074;3.704;2023-02-28T01:18:14;3.30;99.90
26703;DHT22;14316;51.074;3.704;2023-02-28T01:20:40;3.30;99.90
26703;DHT22;14316;51.074;3.704;2023-02-28T01:23:06;3.30;99.90
26703;DHT22;14316;51.074;3.704;2023-02-28T01:25:34;3.30;99.90
26703;DHT22;14316;51.074;3.704;2023-02-28T01:28:00;3.30;99.90
26703;DHT22;14316;51.074;3.704;2023-02-28T01:30:26;3.20;99.90
26703;DHT22;14316;51.074;3.704;2023-02-28T01:32:52;3.30;99.90
26703;DHT22;14316;51.074;3.704;2023-02-28T01:35:19;3.20;99.90
26703;DHT22;14316;51.074;3.704;2023-02-28T01:37:45;3.30;99.90
26703;DHT22;14316;51.074;3.704;2023-02-28T01:40:11;3.30;99.90
26703;DHT22;14316;51.074;3.704;2023-02-28T01:42:38;3.10;99.90
26703;DHT22;14316;51.074;3.704;2023-02-28T01:45:28;3.10;99.90
26703;DHT22;14316;51.074;3.704;2023-02-28T01:47:58;3.20;99.90
26703;DHT22;14316;51.074;3.704;2023-02-28T01:50:28;3.10;99.90
26703;DHT22;14316;51.074;3.704;2023-02-28T01:52:57;3.20;99.90
26703;DHT22;14316;51.074;3.704;2023-02-28T01:55:26;3.10;99.90
26703;DHT22;14316;51.074;3.704;2023-02-28T01:57:57;3.10;99.90
26703;DHT22;14316;51.074;3.704;2023-02-28T02:00:26;3.10;99.90
26703;DHT22;14316;51.074;3.704;2023-02-28T02:02:58;3.10;99.90
26703;DHT22;14316;51.074;3.704;2023-02-28T02:05:27;3.10;99.90
26703;DHT22;14316;51.074;3.704;2023-02-28T02:08:01;3.20;99.90
26703;DHT22;14316;51.074;3.704;2023-02-28T02:10:52;3.40;99.90
26703;DHT22;14316;51.074;3.704;2023-02-28T02:27:16;3.00;99.90
26703;DHT22;14316;51.074;3.704;2023-02-28T02:35:45;3.00;99.90
26703;DHT22;14316;51.074;3.704;2023-02-28T02:38:10;3.00;99.90
26703;DHT22;14316;51.074;3.704;2023-02-28T02:41:03;3.00;99.90
26703;DHT22;14316;51.074;3.704;2023-02-28T02:46:03;2.90;99.90
26703;DHT22;14316;51.074;3.704;2023-02-28T02:48:33;3.00;99.90
26703;DHT22;14316;51.074;3.704;2023-02-28T02:51:02;3.00;99.90
26703;DHT22;14316;51.074;3.704;2023-02-28T02:53:35;2.90;99.90
26703;DHT22;14316;51.074;3.704;2023-02-28T02:56:03;3.00;99.90
26703;DHT22;14316;51.074;3.704;2023-02-28T02:58:38;3.00;99.90
26703;DHT22;14316;51.074;3.704;2023-02-28T03:01:12;2.90;99.90
26703;DHT22;14316;51.074;3.704;2023-02-28T03:03:40;2.90;99.90
26703;DHT22;14316;51.074;3.704;2023-02-28T03:06:06;3.00;99.90
26703;DHT22;14316;51.074;3.704;2023-02-28T03:08:36;2.90;99.90
26703;DHT22;14316;51.074;3.704;2023-02-28T03:11:05;3.10;99.90
26703;DHT22;14316;51.074;3.704;2023-02-28T03:13:47;3.00;99.90
26703;DHT22;14316;51.074;3.704;2023-02-28T03:22:11;2.90;99.90
26703;DHT22;14316;51.074;3.704;2023-02-28T03:24:38;2.90;99.90
26703;DHT22;14316;51.074;3.704;2023-02-28T03:27:11;2.90;99.90
26703;DHT22;14316;51.074;3.704;2023-02-28T03:29:43;3.00;99.90
26703;DHT22;14316;51.074;3.704;2023-02-28T03:32:28;3.00;99.90
26703;DHT22;14316;51.074;3.704;2023-02-28T03:35:09;3.00;99.90
26703;DHT22;14316;51.074;3.704;2023-02-28T03:37:39;3.00;99.90
26703;DHT22;14316;51.074;3.704;2023-02-28T03:40:15;3.00;99.90
26703;DHT22;14316;51.074;3.704;2023-02-28T03:42:45;3.00;99.90
26703;DHT22;14316;51.074;3.704;2023-02-28T03:45:19;3.00;99.90
26703;DHT22;14316;51.074;3.704;2023-02-28T03:48:03;3.10;99.90
26703;DHT22;14316;51.074;3.704;2023-02-28T03:50:40;3.20;99.90
26703;DHT22;14316;51.074;3.704;2023-02-28T03:55:42;3.20;99.90
26703;DHT22;14316;51.074;3.704;2023-02-28T03:58:35;3.30;99.90
26703;DHT22;14316;51.074;3.704;2023-02-28T04:01:17;3.40;99.90
26703;DHT22;14316;51.074;3.704;2023-02-28T04:03:44;3.50;99.90
26703;DHT22;14316;51.074;3.704;2023-02-28T04:06:16;3.50;99.90
26703;DHT22;14316;51.074;3.704;2023-02-28T04:08:42;3.50;99.90
26703;DHT22;14316;51.074;3.704;2023-02-28T04:14:11;3.50;99.90
26703;DHT22;14316;51.074;3.704;2023-02-28T04:16:39;3.50;99.90
26703;DHT22;14316;51.074;3.704;2023-02-28T04:19:06;3.50;99.90
26703;DHT22;14316;51.074;3.704;2023-02-28T04:21:34;3.60;99.90
26703;DHT22;14316;51.074;3.704;2023-02-28T04:24:06;3.70;99.90
26703;DHT22;14316;51.074;3.704;2023-02-28T04:26:33;3.70;99.90
26703;DHT22;14316;51.074;3.704;2023-02-28T04:29:00;3.70;99.90
26703;DHT22;14316;51.074;3.704;2023-02-28T04:31:26;3.90;99.90
26703;DHT22;14316;51.074;3.704;2023-02-28T04:33:52;3.80;99.90
26703;DHT22;14316;51.074;3.704;2023-02-28T04:36:18;4.00;99.90
26703;DHT22;14316;51.074;3.704;2023-02-28T04:38:44;3.80;99.90
26703;DHT22;14316;51.074;3.704;2023-02-28T04:41:11;3.80;99.90
26703;DHT22;14316;51.074;3.704;2023-02-28T04:43:37;3.70;99.90
26703;DHT22;14316;51.074;3.704;2023-02-28T04:46:04;3.60;99.90
26703;DHT22;14316;51.074;3.704;2023-02-28T04:48:32;3.60;99.90
26703;DHT22;14316;51.074;3.704;2023-02-28T04:51:03;3.60;99.90
26703;DHT22;14316;51.074;3.704;2023-02-28T04:53:29;3.70;99.90
26703;DHT22;14316;51.074;3.704;2023-02-28T04:55:55;3.70;99.90
26703;DHT22;14316;51.074;3.704;2023-02-28T04:58:22;3.70;99.90
26703;DHT22;14316;51.074;3.704;2023-02-28T05:00:50;3.90;99.90
26703;DHT22;14316;51.074;3.704;2023-02-28T05:03:16;4.10;99.90
26703;DHT22;14316;51.074;3.704;2023-02-28T05:05:41;4.10;99.90
26703;DHT22;14316;51.074;3.704;2023-02-28T05:08:07;4.00;99.90
26703;DHT22;14316;51.074;3.704;2023-02-28T05:10:32;3.90;99.90
26703;DHT22;14316;51.074;3.704;2023-02-28T05:12:58;4.10;99.90
26703;DHT22;14316;51.074;3.704;2023-02-28T05:15:24;4.20;99.90
26703;DHT22;14316;51.074;3.704;2023-02-28T05:17:50;4.20;99.90
26703;DHT22;14316;51.074;3.704;2023-02-28T05:20:15;4.30;99.90
26703;DHT22;14316;51.074;3.704;2023-02-28T05:22:43;4.50;99.90
26703;DHT22;14316;51.074;3.704;2023-02-28T05:25:15;4.60;99.90
26703;DHT22;14316;51.074;3.704;2023-02-28T05:27:41;4.60;99.90
26703;DHT22;14316;51.074;3.704;2023-02-28T05:30:07;4.40;99.90
26703;DHT22;14316;51.074;3.704;2023-02-28T05:32:36;4.20;99.90
26703;DHT22;14316;51.074;3.704;2023-02-28T05:35:03;4.10;99.90
26703;DHT22;14316;51.074;3.704;2023-02-28T05:37:29;4.10;99.90
26703;DHT22;14316;51.074;3.704;2023-02-28T05:39:54;4.10;99.90
26703;DHT22;14316;51.074;3.704;2023-02-28T05:42:20;4.10;99.90
26703;DHT22;14316;51.074;3.704;2023-02-28T05:44:46;4.20;99.90
26703;DHT22;14316;51.074;3.704;2023-02-28T05:47:12;4.10;99.90
26703;DHT22;14316;51.074;3.704;2023-02-28T05:49:41;4.30;99.90
26703;DHT22;14316;51.074;3.704;2023-02-28T05:52:07;4.20;99.90
26703;DHT22;14316;51.074;3.704;2023-02-28T05:54:33;4.20;99.90
26703;DHT22;14316;51.074;3.704;2023-02-28T05:56:58;4.20;99.90
26703;DHT22;14316;51.074;3.704;2023-02-28T05:59:24;4.20;99.90
26703;DHT22;14316;51.074;3.704;2023-02-28T06:01:50;4.20;99.90
26703;DHT22;14316;51.074;3.704;2023-02-28T06:04:19;4.10;99.90
26703;DHT22;14316;51.074;3.704;2023-02-28T06:06:46;4.10;99.90
26703;DHT22;14316;51.074;3.704;2023-02-28T06:09:12;4.00;99.90
26703;DHT22;14316;51.074;3.704;2023-02-28T06:11:39;4.00;99.90
26703;DHT22;14316;51.074;3.704;2023-02-28T06:14:05;4.10;99.90
26703;DHT22;14316;51.074;3.704;2023-02-28T06:16:33;4.10;99.90
26703;DHT22;14316;51.074;3.704;2023-02-28T06:19:01;4.10;99.90
26703;DHT22;14316;51.074;3.704;2023-02-28T06:21:28;4.10;99.90
26703;DHT22;14316;51.074;3.704;2023-02-28T06:23:55;4.20;99.90
26703;DHT22;14316;51.074;3.704;2023-02-28T06:26:21;4.20;99.90
26703;DHT22;14316;51.074;3.704;2023-02-28T06:28:47;4.20;99.90
26703;DHT22;14316;51.074;3.704;2023-02-28T06:31:15;4.20;99.90
26703;DHT22;14316;51.074;3.704;2023-02-28T06:33:41;4.10;99.90
26703;DHT22;14316;51.074;3.704;2023-02-28T06:36:09;4.20;99.90
26703;DHT22;14316;51.074;3.704;2023-02-28T06:38:35;4.20;99.90
26703;DHT22;14316;51.074;3.704;2023-02-28T06:41:01;4.10;99.90
26703;DHT22;14316;51.074;3.704;2023-02-28T06:43:34;4.20;99.90
26703;DHT22;14316;51.074;3.704;2023-02-28T06:46:01;4.20;99.90
26703;DHT22;14316;51.074;3.704;2023-02-28T06:48:28;4.30;99.90
26703;DHT22;14316;51.074;3.704;2023-02-28T06:51:13;4.40;99.90
26703;DHT22;14316;51.074;3.704;2023-02-28T06:53:40;4.70;99.90
26703;DHT22;14316;51.074;3.704;2023-02-28T06:56:08;4.80;99.90
26703;DHT22;14316;51.074;3.704;2023-02-28T06:58:35;4.90;99.90
26703;DHT22;14316;51.074;3.704;2023-02-28T07:01:02;5.10;99.90
26703;DHT22;14316;51.074;3.704;2023-02-28T07:03:27;4.80;99.90
26703;DHT22;14316;51.074;3.704;2023-02-28T07:05:53;4.80;99.90
26703;DHT22;14316;51.074;3.704;2023-02-28T07:08:19;4.80;99.90
26703;DHT22;14316;51.074;3.704;2023-02-28T07:10:45;4.80;99.90
26703;DHT22;14316;51.074;3.704;2023-02-28T07:13:11;5.00;99.90
26703;DHT22;14316;51.074;3.704;2023-02-28T07:15:38;5.10;99.90
26703;DHT22;14316;51.074;3.704;2023-02-28T07:18:04;5.20;99.90
26703;DHT22;14316;51.074;3.704;2023-02-28T07:20:30;5.30;99.90
26703;DHT22;14316;51.074;3.704;2023-02-28T07:22:56;5.40;99.90
26703;DHT22;14316;51.074;3.704;2023-02-28T07:25:23;5.20;99.90
26703;DHT22;14316;51.074;3.704;2023-02-28T07:27:48;5.00;99.90
26703;DHT22;14316;51.074;3.704;2023-02-28T07:30:14;4.90;99.90
26703;DHT22;14316;51.074;3.704;2023-02-28T07:32:40;4.90;99.90
26703;DHT22;14316;51.074;3.704;2023-02-28T07:35:06;4.90;99.90
26703;DHT22;14316;51.074;3.704;2023-02-28T07:37:32;5.00;99.90
26703;DHT22;14316;51.074;3.704;2023-02-28T07:40:03;5.00;99.90
26703;DHT22;14316;51.074;3.704;2023-02-28T07:42:31;5.10;99.90
26703;DHT22;14316;51.074;3.704;2023-02-28T07:44:57;5.10;99.90
26703;DHT22;14316;51.074;3.704;2023-02-28T07:47:24;4.90;99.90
26703;DHT22;14316;51.074;3.704;2023-02-28T07:49:50;4.90;99.90
26703;DHT22;14316;51.074;3.704;2023-02-28T07:52:16;4.90;99.90
26703;DHT22;14316;51.074;3.704;2023-02-28T07:54:41;5.10;99.90
26703;DHT22;14316;51.074;3.704;2023-02-28T07:57:07;5.20;99.90
26703;DHT22;14316;51.074;3.704;2023-02-28T07:59:32;5.10;99.90
26703;DHT22;14316;51.074;3.704;2023-02-28T08:01:58;5.20;99.90
26703;DHT22;14316;51.074;3.704;2023-02-28T08:04:25;5.20;99.90
26703;DHT22;14316;51.074;3.704;2023-02-28T08:06:50;5.30;99.90
26703;DHT22;14316;51.074;3.704;2023-02-28T08:09:19;5.40;99.90
26703;DHT22;14316;51.074;3.704;2023-02-28T08:11:45;5.50;99.90
26703;DHT22;14316;51.074;3.704;2023-02-28T08:14:12;5.60;99.90
26703;DHT22;14316;51.074;3.704;2023-02-28T08:16:37;5.80;99.90
26703;DHT22;14316;51.074;3.704;2023-02-28T08:19:04;5.60;99.90
26703;DHT22;14316;51.074;3.704;2023-02-28T08:21:29;5.50;99.90
26703;DHT22;14316;51.074;3.704;2023-02-28T08:23:55;5.60;99.90
26703;DHT22;14316;51.074;3.704;2023-02-28T08:26:22;5.60;99.90
26703;DHT22;14316;51.074;3.704;2023-02-28T08:28:48;5.70;99.90
26703;DHT22;14316;51.074;3.704;2023-02-28T08:31:15;5.60;99.90
26703;DHT22;14316;51.074;3.704;2023-02-28T08:33:42;5.60;99.90
26703;DHT22;14316;51.074;3.704;2023-02-28T08:36:08;5.50;99.90
26703;DHT22;14316;51.074;3.704;2023-02-28T08:38:35;5.60;99.90
26703;DHT22;14316;51.074;3.704;2023-02-28T08:41:04;5.50;99.90
26703;DHT22;14316;51.074;3.704;2023-02-28T08:43:33;5.50;99.90
26703;DHT22;14316;51.074;3.704;2023-02-28T08:45:58;5.50;99.90
26703;DHT22;14316;51.074;3.704;2023-02-28T08:48:29;5.90;99.90
26703;DHT22;14316;51.074;3.704;2023-02-28T08:51:04;5.70;99.90
26703;DHT22;14316;51.074;3.704;2023-02-28T08:53:29;5.70;99.90
26703;DHT22;14316;51.074;3.704;2023-02-28T08:56:00;5.70;99.90
26703;DHT22;14316;51.074;3.704;2023-02-28T08:58:26;5.80;99.90
26703;DHT22;14316;51.074;3.704;2023-02-28T09:00:53;5.70;99.90
26703;DHT22;14316;51.074;3.704;2023-02-28T09:03:19;5.60;99.90
26703;DHT22;14316;51.074;3.704;2023-02-28T09:05:58;5.70;99.90
26703;DHT22;14316;51.074;3.704;2023-02-28T09:08:26;5.50;99.90
26703;DHT22;14316;51.074;3.704;2023-02-28T09:10:52;5.50;99.90
26703;DHT22;14316;51.074;3.704;2023-02-28T09:13:19;5.60;99.90
26703;DHT22;14316;51.074;3.704;2023-02-28T09:15:45;5.70;99.90
26703;DHT22;14316;51.074;3.704;2023-02-28T09:18:11;5.80;99.90
26703;DHT22;14316;51.074;3.704;2023-02-28T09:20:40;5.90;99.90
26703;DHT22;14316;51.074;3.704;2023-02-28T09:23:07;5.90;99.90
26703;DHT22;14316;51.074;3.704;2023-02-28T09:25:35;6.00;99.90
26703;DHT22;14316;51.074;3.704;2023-02-28T09:28:02;6.20;99.90
26703;DHT22;14316;51.074;3.704;2023-02-28T09:30:28;6.20;99.90
26703;DHT22;14316;51.074;3.704;2023-02-28T09:32:54;6.10;99.90
26703;DHT22;14316;51.074;3.704;2023-02-28T09:35:24;6.30;99.90
26703;DHT22;14316;51.074;3.704;2023-02-28T09:37:52;6.60;99.90
26703;DHT22;14316;51.074;3.704;2023-02-28T09:40:23;6.70;99.90
26703;DHT22;14316;51.074;3.704;2023-02-28T09:42:52;6.90;99.90
26703;DHT22;14316;51.074;3.704;2023-02-28T09:45:27;6.90;99.90
26703;DHT22;14316;51.074;3.704;2023-02-28T09:47:56;6.90;99.90
26703;DHT22;14316;51.074;3.704;2023-02-28T09:50:34;7.00;99.90
26703;DHT22;14316;51.074;3.704;2023-02-28T09:56:11;6.50;99.90
26703;DHT22;14316;51.074;3.704;2023-02-28T09:58:47;6.80;99.90
26703;DHT22;14316;51.074;3.704;2023-02-28T10:06:54;7.40;99.90
26703;DHT22;14316;51.074;3.704;2023-02-28T10:09:30;7.50;99.90
26703;DHT22;14316;51.074;3.704;2023-02-28T10:12:00;7.60;99.90
26703;DHT22;14316;51.074;3.704;2023-02-28T10:14:30;7.40;99.90
26703;DHT22;14316;51.074;3.704;2023-02-28T10:17:21;6.70;99.90
26703;DHT22;14316;51.074;3.704;2023-02-28T10:20:24;6.80;99.90
26703;DHT22;14316;51.074;3.704;2023-02-28T10:23:04;7.20;99.90
26703;DHT22;14316;51.074;3.704;2023-02-28T10:25:35;7.10;99.90
26703;DHT22;14316;51.074;3.704;2023-02-28T10:28:12;7.10;99.90
26703;DHT22;14316;51.074;3.704;2023-02-28T10:30:49;7.20;99.90
26703;DHT22;14316;51.074;3.704;2023-02-28T10:35:49;7.30;99.90
26703;DHT22;14316;51.074;3.704;2023-02-28T10:38:22;7.60;99.90
26703;DHT22;14316;51.074;3.704;2023-02-28T10:40:48;7.90;99.90
26703;DHT22;14316;51.074;3.704;2023-02-28T10:45:51;8.60;99.90
26703;DHT22;14316;51.074;3.704;2023-02-28T10:48:38;8.60;99.90
26703;DHT22;14316;51.074;3.704;2023-02-28T10:51:15;8.60;99.90
26703;DHT22;14316;51.074;3.704;2023-02-28T10:53:51;8.30;99.90
26703;DHT22;14316;51.074;3.704;2023-02-28T10:56:22;8.50;99.90
26703;DHT22;14316;51.074;3.704;2023-02-28T10:59:05;8.40;99.90
26703;DHT22;14316;51.074;3.704;2023-02-28T11:01:47;8.30;99.90
26703;DHT22;14316;51.074;3.704;2023-02-28T11:04:19;8.50;99.90
26703;DHT22;14316;51.074;3.704;2023-02-28T11:06:47;8.70;99.90
26703;DHT22;14316;51.074;3.704;2023-02-28T11:09:30;8.70;99.90
26703;DHT22;14316;51.074;3.704;2023-02-28T11:11:57;9.10;99.90
26703;DHT22;14316;51.074;3.704;2023-02-28T11:14:28;9.80;99.90
26703;DHT22;14316;51.074;3.704;2023-02-28T11:16:58;10.30;99.90
26703;DHT22;14316;51.074;3.704;2023-02-28T11:19:40;10.90;99.90
26703;DHT22;14316;51.074;3.704;2023-02-28T11:22:09;12.60;99.90
26703;DHT22;14316;51.074;3.704;2023-02-28T11:24:48;13.40;98.70
26703;DHT22;14316;51.074;3.704;2023-02-28T11:29:57;15.00;96.60
26703;DHT22;14316;51.074;3.704;2023-02-28T11:32:25;15.60;96.70
26703;DHT22;14316;51.074;3.704;2023-02-28T11:37:34;16.60;91.00
26703;DHT22;14316;51.074;3.704;2023-02-28T11:40:01;15.70;83.90
26703;DHT22;14316;51.074;3.704;2023-02-28T11:42:38;13.90;87.70
26703;DHT22;14316;51.074;3.704;2023-02-28T11:56:26;16.60;83.10
26703;DHT22;14316;51.074;3.704;2023-02-28T11:58:51;15.70;77.70
26703;DHT22;14316;51.074;3.704;2023-02-28T12:06:50;18.20;76.00
26703;DHT22;14316;51.074;3.704;2023-02-28T12:12:30;17.50;68.20
26703;DHT22;14316;51.074;3.704;2023-02-28T12:17:51;17.70;68.00
26703;DHT22;14316;51.074;3.704;2023-02-28T12:23:48;19.70;73.00
26703;DHT22;14316;51.074;3.704;2023-02-28T12:31:34;24.30;56.00
26703;DHT22;14316;51.074;3.704;2023-02-28T12:34:10;24.70;55.50
26703;DHT22;14316;51.074;3.704;2023-02-28T12:36:37;25.60;49.40
26703;DHT22;14316;51.074;3.704;2023-02-28T12:39:08;24.40;45.60
26703;DHT22;14316;51.074;3.704;2023-02-28T12:41:46;24.40;45.20
26703;DHT22;14316;51.074;3.704;2023-02-28T12:44:17;21.00;47.10
26703;DHT22;14316;51.074;3.704;2023-02-28T12:46:50;22.30;53.30
26703;DHT22;14316;51.074;3.704;2023-02-28T12:51:49;26.40;47.10
26703;DHT22;14316;51.074;3.704;2023-02-28T12:54:28;26.70;44.80
26703;DHT22;14316;51.074;3.704;2023-02-28T12:59:57;27.80;39.40
26703;DHT22;14316;51.074;3.704;2023-02-28T13:10:48;29.40;34.70
26703;DHT22;14316;51.074;3.704;2023-02-28T13:13:23;27.70;36.50
26703;DHT22;14316;51.074;3.704;2023-02-28T13:16:08;28.10;38.70
26703;DHT22;14316;51.074;3.704;2023-02-28T13:21:02;28.80;34.70
26703;DHT22;14316;51.074;3.704;2023-02-28T13:34:32;24.30;32.70
26703;DHT22;14316;51.074;3.704;2023-02-28T13:39:54;23.00;37.60
26703;DHT22;14316;51.074;3.704;2023-02-28T13:42:46;24.80;36.00
26703;DHT22;14316;51.074;3.704;2023-02-28T13:50:32;26.60;31.20
26703;DHT22;14316;51.074;3.704;2023-02-28T14:06:33;26.70;38.10
26703;DHT22;14316;51.074;3.704;2023-02-28T14:09:14;27.10;32.70
26703;DHT22;14316;51.074;3.704;2023-02-28T14:11:43;28.00;36.10
26703;DHT22;14316;51.074;3.704;2023-02-28T14:17:01;28.60;30.00
26703;DHT22;14316;51.074;3.704;2023-02-28T14:19:31;28.60;35.70
26703;DHT22;14316;51.074;3.704;2023-02-28T14:22:24;28.30;31.20
26703;DHT22;14316;51.074;3.704;2023-02-28T14:27:48;27.00;30.00
26703;DHT22;14316;51.074;3.704;2023-02-28T14:38:35;27.90;35.10
26703;DHT22;14316;51.074;3.704;2023-02-28T14:41:06;28.10;32.10
26703;DHT22;14316;51.074;3.704;2023-02-28T14:43:48;28.20;33.80
26703;DHT22;14316;51.074;3.704;2023-02-28T14:46:15;27.60;33.10
26703;DHT22;14316;51.074;3.704;2023-02-28T14:48:48;27.60;33.00
26703;DHT22;14316;51.074;3.704;2023-02-28T14:51:19;27.50;33.20
26703;DHT22;14316;51.074;3.704;2023-02-28T14:53:49;27.10;30.80
26703;DHT22;14316;51.074;3.704;2023-02-28T14:56:39;27.50;36.30
26703;DHT22;14316;51.074;3.704;2023-02-28T14:59:34;27.70;34.20
26703;DHT22;14316;51.074;3.704;2023-02-28T15:02:22;27.70;35.10
26703;DHT22;14316;51.074;3.704;2023-02-28T15:04:56;27.10;29.70
26703;DHT22;14316;51.074;3.704;2023-02-28T15:07:23;26.20;33.50
26703;DHT22;14316;51.074;3.704;2023-02-28T15:10:08;26.50;34.20
26703;DHT22;14316;51.074;3.704;2023-02-28T15:12:35;26.80;33.60
26703;DHT22;14316;51.074;3.704;2023-02-28T15:15:03;26.80;31.70
26703;DHT22;14316;51.074;3.704;2023-02-28T15:17:29;25.90;31.70
26703;DHT22;14316;51.074;3.704;2023-02-28T15:19:55;25.90;31.70
26703;DHT22;14316;51.074;3.704;2023-02-28T15:22:29;24.90;32.20
26703;DHT22;14316;51.074;3.704;2023-02-28T15:24:59;24.60;34.90
26703;DHT22;14316;51.074;3.704;2023-02-28T15:27:30;24.80;34.00
26703;DHT22;14316;51.074;3.704;2023-02-28T15:30:05;24.90;33.20
26703;DHT22;14316;51.074;3.704;2023-02-28T15:32:34;25.10;37.10
26703;DHT22;14316;51.074;3.704;2023-02-28T15:35:19;25.10;33.30
26703;DHT22;14316;51.074;3.704;2023-02-28T15:37:56;24.90;35.40
26703;DHT22;14316;51.074;3.704;2023-02-28T15:40:27;24.90;34.90
26703;DHT22;14316;51.074;3.704;2023-02-28T15:45:37;24.80;36.00
26703;DHT22;14316;51.074;3.704;2023-02-28T15:48:05;24.60;32.70
26703;DHT22;14316;51.074;3.704;2023-02-28T15:50:37;24.40;33.90
26703;DHT22;14316;51.074;3.704;2023-02-28T15:53:03;24.20;33.60
26703;DHT22;14316;51.074;3.704;2023-02-28T15:55:29;23.30;34.90
26703;DHT22;14316;51.074;3.704;2023-02-28T15:57:59;22.20;32.80
26703;DHT22;14316;51.074;3.704;2023-02-28T16:00:27;22.30;37.80
26703;DHT22;14316;51.074;3.704;2023-02-28T16:02:53;22.30;35.50
26703;DHT22;14316;51.074;3.704;2023-02-28T16:05:31;21.90;37.50
26703;DHT22;14316;51.074;3.704;2023-02-28T16:08:14;22.10;35.40
26703;DHT22;14316;51.074;3.704;2023-02-28T16:10:40;22.00;35.00
26703;DHT22;14316;51.074;3.704;2023-02-28T16:13:08;22.40;36.60
26703;DHT22;14316;51.074;3.704;2023-02-28T16:15:38;21.90;36.90
26703;DHT22;14316;51.074;3.704;2023-02-28T16:18:10;21.80;36.00
26703;DHT22;14316;51.074;3.704;2023-02-28T16:20:36;21.60;36.90
26703;DHT22;14316;51.074;3.704;2023-02-28T16:23:02;21.50;34.20
26703;DHT22;14316;51.074;3.704;2023-02-28T16:25:40;21.40;32.90
26703;DHT22;14316;51.074;3.704;2023-02-28T16:28:15;21.10;33.80
26703;DHT22;14316;51.074;3.704;2023-02-28T16:30:43;20.60;35.10
26703;DHT22;14316;51.074;3.704;2023-02-28T16:33:09;20.20;37.00
26703;DHT22;14316;51.074;3.704;2023-02-28T16:35:35;19.70;36.30
26703;DHT22;14316;51.074;3.704;2023-02-28T16:38:00;18.50;37.70
26703;DHT22;14316;51.074;3.704;2023-02-28T16:40:26;16.80;41.10
26703;DHT22;14316;51.074;3.704;2023-02-28T16:42:55;15.70;42.10
26703;DHT22;14316;51.074;3.704;2023-02-28T16:45:25;15.00;42.90
26703;DHT22;14316;51.074;3.704;2023-02-28T16:47:51;14.20;45.10
26703;DHT22;14316;51.074;3.704;2023-02-28T16:52:44;12.90;44.80
26703;DHT22;14316;51.074;3.704;2023-02-28T16:55:10;12.40;48.60
26703;DHT22;14316;51.074;3.704;2023-02-28T16:57:36;11.70;50.60
26703;DHT22;14316;51.074;3.704;2023-02-28T17:00:03;11.10;50.50
26703;DHT22;14316;51.074;3.704;2023-02-28T17:02:29;10.60;54.00
26703;DHT22;14316;51.074;3.704;2023-02-28T17:04:55;10.20;53.10
26703;DHT22;14316;51.074;3.704;2023-02-28T17:07:21;9.70;52.90
26703;DHT22;14316;51.074;3.704;2023-02-28T17:09:46;9.60;54.00
26703;DHT22;14316;51.074;3.704;2023-02-28T17:12:12;9.50;53.00
26703;DHT22;14316;51.074;3.704;2023-02-28T17:14:38;9.30;53.60
26703;DHT22;14316;51.074;3.704;2023-02-28T17:17:05;9.10;53.40
26703;DHT22;14316;51.074;3.704;2023-02-28T17:19:30;8.80;54.70
26703;DHT22;14316;51.074;3.704;2023-02-28T17:21:56;8.40;56.40
26703;DHT22;14316;51.074;3.704;2023-02-28T17:24:22;8.20;56.20
26703;DHT22;14316;51.074;3.704;2023-02-28T17:26:47;8.20;56.90
26703;DHT22;14316;51.074;3.704;2023-02-28T17:29:21;8.00;56.20
26703;DHT22;14316;51.074;3.704;2023-02-28T17:31:47;8.10;57.40
26703;DHT22;14316;51.074;3.704;2023-02-28T17:34:13;7.90;57.00
26703;DHT22;14316;51.074;3.704;2023-02-28T17:36:48;7.80;55.50
26703;DHT22;14316;51.074;3.704;2023-02-28T17:39:15;7.70;55.40
26703;DHT22;14316;51.074;3.704;2023-02-28T17:41:45;7.30;56.00
26703;DHT22;14316;51.074;3.704;2023-02-28T17:44:10;7.20;56.60
26703;DHT22;14316;51.074;3.704;2023-02-28T17:46:36;7.10;56.60
26703;DHT22;14316;51.074;3.704;2023-02-28T17:49:02;7.10;56.90
26703;DHT22;14316;51.074;3.704;2023-02-28T17:51:28;6.80;57.50
26703;DHT22;14316;51.074;3.704;2023-02-28T17:53:54;6.60;61.10
26703;DHT22;14316;51.074;3.704;2023-02-28T17:56:23;6.50;64.40
26703;DHT22;14316;51.074;3.704;2023-02-28T17:58:49;6.50;64.80
26703;DHT22;14316;51.074;3.704;2023-02-28T18:01:16;6.50;66.40
26703;DHT22;14316;51.074;3.704;2023-02-28T18:03:42;6.30;64.30
26703;DHT22;14316;51.074;3.704;2023-02-28T18:06:18;6.20;68.90
26703;DHT22;14316;51.074;3.704;2023-02-28T18:08:44;6.10;70.80
26703;DHT22;14316;51.074;3.704;2023-02-28T18:11:11;5.80;71.30
26703;DHT22;14316;51.074;3.704;2023-02-28T18:13:53;5.60;72.10
26703;DHT22;14316;51.074;3.704;2023-02-28T18:16:21;5.50;76.40
26703;DHT22;14316;51.074;3.704;2023-02-28T18:18:47;5.40;76.70
26703;DHT22;14316;51.074;3.704;2023-02-28T18:21:14;5.40;77.10
26703;DHT22;14316;51.074;3.704;2023-02-28T18:23:41;5.40;78.40
26703;DHT22;14316;51.074;3.704;2023-02-28T18:26:16;5.40;80.50
26703;DHT22;14316;51.074;3.704;2023-02-28T18:28:42;5.20;82.20